Woody Point, Canada
Current Conditions -  °F | °C
As of 10:00 PM on Monday 22 Dec 2014 (Local Time) from CYDF Reporting Station
Overcast Overcast  
Wind Chill: -8°   Ceiling: 1800
Heat Index: -4°   Visibility: 15mi
Dew Point: -6°   Wind: 6mph
Humidity: 86%   Direction: 290°WNW
Pressure: 30.48"   Gusts: NA
Location:  49.5°N, 57.93°W
Report Text: CYDF 230100Z 29005KT 250V320 15SM OVC018 M04/M06 A3048 RMK SC8 SLP323
Loading
Personal Weather Stations






























Interactive Weather Map New forecast layout! Learn more

10-Day Weather Forecast

Advertisements
Track Severe Weather on mobile